createdAt,value
2018-11-11T00:02:29.115Z,1.70
2018-11-11T00:04:59.056Z,1.77
2018-11-11T00:07:29.001Z,1.60
2018-11-11T00:09:59.204Z,1.47
2018-11-11T00:12:29.318Z,1.40
2018-11-11T00:14:59.463Z,1.80
2018-11-11T00:17:29.634Z,1.50
2018-11-11T00:19:59.943Z,1.70
2018-11-11T00:22:30.187Z,1.33
2018-11-11T00:25:00.252Z,1.40
2018-11-11T00:27:30.221Z,1.43
2018-11-11T00:30:00.403Z,1.20
2018-11-11T00:32:30.529Z,1.60
2018-11-11T00:35:00.758Z,1.37
2018-11-11T00:37:30.635Z,1.50
2018-11-11T00:40:00.616Z,1.47
2018-11-11T00:42:30.615Z,1.33
2018-11-11T00:45:00.746Z,1.40
2018-11-11T00:47:30.894Z,1.20
2018-11-11T00:50:00.983Z,1.80
2018-11-11T00:52:31.114Z,1.40
2018-11-11T00:55:01.040Z,1.40
2018-11-11T00:57:31.434Z,1.93
2018-11-11T01:00:01.583Z,1.20
2018-11-11T01:02:31.735Z,1.50
2018-11-11T01:05:01.703Z,1.50
2018-11-11T01:07:33.910Z,1.43
2018-11-11T01:10:05.063Z,1.57
2018-11-11T01:12:35.253Z,1.60
2018-11-11T01:15:05.588Z,1.70
2018-11-11T01:17:35.746Z,1.70
2018-11-11T01:20:06.673Z,1.33
2018-11-11T01:22:37.268Z,1.33
2018-11-11T01:25:10.095Z,1.50
2018-11-11T01:27:40.356Z,1.30
2018-11-11T01:30:10.394Z,1.70
2018-11-11T01:32:40.624Z,1.70
2018-11-11T01:35:15.268Z,1.60
2018-11-11T01:37:45.458Z,1.60
2018-11-11T01:40:15.754Z,1.87
2018-11-11T01:42:45.911Z,1.47
2018-11-11T01:45:17.733Z,1.47
2018-11-11T01:47:48.588Z,1.57
2018-11-11T01:50:18.683Z,1.50
2018-11-11T01:52:49.810Z,1.80
2018-11-11T01:55:19.896Z,1.43
2018-11-11T01:57:49.810Z,1.70
2018-11-11T02:00:19.827Z,2.37
2018-11-11T02:02:49.801Z,1.83
2018-11-11T02:05:19.792Z,1.70
2018-11-11T02:07:49.780Z,1.40
2018-11-11T02:13:24.744Z,1.40
2018-11-11T02:25:30.615Z,1.33
2018-11-11T02:31:12.500Z,1.17
2018-11-11T02:33:42.774Z,1.63
2018-11-11T02:36:13.062Z,1.43
2018-11-11T02:38:43.367Z,1.63
2018-11-11T02:41:13.725Z,2.13
2018-11-11T02:43:44.604Z,1.50
2018-11-11T02:46:14.791Z,1.67
2018-11-11T02:48:45.050Z,1.80
2018-11-11T02:51:15.154Z,1.60
2018-11-11T02:53:45.384Z,1.20
2018-11-11T02:56:16.817Z,1.67
2018-11-11T02:58:47.064Z,1.90
2018-11-11T03:01:17.538Z,1.77
2018-11-11T03:03:48.785Z,1.80
2018-11-11T03:06:19.035Z,1.30
2018-11-11T03:08:49.939Z,1.60
2018-11-11T03:11:20.169Z,1.53
2018-11-11T03:13:51.094Z,1.40
2018-11-11T03:16:21.281Z,1.83
2018-11-11T03:18:51.382Z,1.80
2018-11-11T03:21:21.562Z,1.50
2018-11-11T03:23:53.510Z,2.00
2018-11-11T03:26:23.734Z,1.53
2018-11-11T03:28:57.900Z,1.50
2018-11-11T03:31:28.927Z,1.27
2018-11-11T03:33:59.136Z,1.07
2018-11-11T03:36:29.220Z,2.27
2018-11-11T03:39:00.346Z,1.70
2018-11-11T03:41:30.683Z,1.50
2018-11-11T03:44:01.029Z,1.23
2018-11-11T03:46:31.451Z,1.83
2018-11-11T03:49:01.759Z,1.50
2018-11-11T03:51:32.098Z,1.73
2018-11-11T03:54:02.196Z,1.30
2018-11-11T03:56:33.278Z,1.50
2018-11-11T03:59:03.439Z,1.17
2018-11-11T04:01:34.399Z,1.50
2018-11-11T04:04:04.677Z,1.73
2018-11-11T04:06:34.990Z,1.63
2018-11-11T04:09:08.817Z,1.67
2018-11-11T04:11:40.185Z,1.37
2018-11-11T04:17:04.946Z,1.00
2018-11-11T04:19:35.280Z,1.37
2018-11-11T04:36:54.172Z,1.60
2018-11-11T04:39:25.205Z,1.30
2018-11-11T04:41:55.113Z,1.50
2018-11-11T04:44:26.076Z,1.40
2018-11-11T04:46:57.376Z,1.63
2018-11-11T04:49:27.708Z,1.17
2018-11-11T04:51:57.748Z,1.40
2018-11-11T04:54:28.777Z,2.00
2018-11-11T04:56:59.863Z,1.57
2018-11-11T04:59:29.904Z,1.47
2018-11-11T05:01:59.813Z,1.43
2018-11-11T05:04:30.008Z,0.97
2018-11-11T05:07:00.706Z,1.17
2018-11-11T05:09:30.733Z,1.30
2018-11-11T05:12:00.648Z,1.77
2018-11-11T05:14:31.647Z,1.83
2018-11-11T05:17:01.611Z,1.13
2018-11-11T05:19:31.625Z,1.77
2018-11-11T05:22:01.649Z,1.40
2018-11-11T05:24:31.507Z,1.73
2018-11-11T05:27:01.402Z,1.20
2018-11-11T05:29:31.403Z,1.23
2018-11-11T05:32:01.402Z,1.70
2018-11-11T05:34:31.389Z,2.10
2018-11-11T05:37:01.272Z,1.53
2018-11-11T05:39:31.823Z,1.37
2018-11-11T05:42:01.757Z,1.53
2018-11-11T05:44:31.659Z,1.27
2018-11-11T05:47:02.757Z,1.50
2018-11-11T05:49:33.615Z,1.37
2018-11-11T05:52:04.649Z,1.60
2018-11-11T05:54:35.720Z,1.20
2018-11-11T05:57:06.406Z,1.73
2018-11-11T05:59:36.378Z,1.27
2018-11-11T06:02:07.092Z,1.97
2018-11-11T06:04:37.095Z,1.43
2018-11-11T06:07:07.878Z,1.23
2018-11-11T06:09:37.894Z,1.50
2018-11-11T06:12:07.854Z,1.83
2018-11-11T06:14:39.960Z,1.70
2018-11-11T06:17:09.936Z,1.60
2018-11-11T06:19:40.947Z,1.57
2018-11-11T06:22:10.875Z,1.30
2018-11-11T06:24:41.764Z,1.50
2018-11-11T06:27:12.371Z,2.20
2018-11-11T06:29:43.409Z,1.37
2018-11-11T06:32:13.385Z,1.47
2018-11-11T06:34:43.303Z,1.57
2018-11-11T06:37:14.437Z,2.70
2018-11-11T06:39:45.577Z,1.30
2018-11-11T06:42:16.932Z,1.37
2018-11-11T06:44:46.880Z,1.67
2018-11-11T06:47:17.723Z,1.40
2018-11-11T06:49:47.719Z,1.20
2018-11-11T06:52:18.539Z,1.80
2018-11-11T06:54:48.644Z,2.40
2018-11-11T06:57:20.391Z,1.47
2018-11-11T06:59:51.489Z,1.33
2018-11-11T07:02:21.465Z,1.40
2018-11-11T07:04:52.243Z,1.83
2018-11-11T07:07:23.272Z,1.83
2018-11-11T07:09:54.194Z,1.63
2018-11-11T07:12:24.192Z,1.60
2018-11-11T07:14:55.736Z,1.80
2018-11-11T07:17:25.669Z,1.60
2018-11-11T07:19:55.620Z,1.50
2018-11-11T07:22:25.858Z,1.57
2018-11-11T07:24:56.010Z,1.90
2018-11-11T07:27:25.955Z,1.93
2018-11-11T07:29:55.903Z,2.37
2018-11-11T07:32:25.797Z,1.83
2018-11-11T07:34:55.990Z,1.43
2018-11-11T07:37:27.157Z,1.67
2018-11-11T07:39:57.405Z,1.30
2018-11-11T07:42:27.619Z,1.23
2018-11-11T07:44:57.673Z,1.40
2018-11-11T07:47:27.641Z,1.93
2018-11-11T07:49:57.802Z,1.43
2018-11-11T07:52:27.885Z,1.50
2018-11-11T07:54:58.109Z,1.33
2018-11-11T07:57:28.576Z,1.20
2018-11-11T07:59:58.542Z,1.07
2018-11-11T08:02:28.475Z,1.90
2018-11-11T08:04:58.771Z,1.50
2018-11-11T08:07:29.508Z,1.40
2018-11-11T08:09:59.699Z,1.83
2018-11-11T08:12:29.738Z,2.00
2018-11-11T08:14:59.787Z,1.50
2018-11-11T08:17:29.735Z,1.50
2018-11-11T08:19:59.704Z,1.60
2018-11-11T08:22:29.987Z,1.13
2018-11-11T08:25:00.408Z,2.03
2018-11-11T08:27:30.580Z,1.00
2018-11-11T08:30:00.789Z,1.57
2018-11-11T08:32:30.929Z,1.27
2018-11-11T08:35:00.815Z,1.50
2018-11-11T08:37:31.000Z,1.27
2018-11-11T08:40:00.949Z,1.10
2018-11-11T08:42:30.979Z,1.47
2018-11-11T08:45:00.841Z,1.00
2018-11-11T08:47:30.964Z,1.20
2018-11-11T08:50:00.880Z,1.27
2018-11-11T08:52:30.840Z,1.40
2018-11-11T08:55:00.909Z,1.30
2018-11-11T08:57:30.804Z,1.60
2018-11-11T09:00:00.984Z,1.20
2018-11-11T09:02:31.229Z,1.10
2018-11-11T09:05:02.297Z,1.03
2018-11-11T09:07:33.010Z,0.80
2018-11-11T09:10:03.094Z,1.10
2018-11-11T09:15:43.962Z,0.80
2018-11-11T09:18:16.915Z,0.90
2018-11-11T09:20:57.664Z,1.17
2018-11-11T09:23:40.298Z,0.70
2018-11-11T09:26:25.283Z,0.87
2018-11-11T09:29:11.691Z,0.73
2018-11-11T09:34:48.810Z,0.77
2018-11-11T09:37:20.138Z,0.90
2018-11-11T09:39:58.000Z,0.90
2018-11-11T09:42:28.840Z,0.93
2018-11-11T09:44:59.414Z,1.03
2018-11-11T09:47:29.463Z,1.33
2018-11-11T09:50:00.096Z,0.80
2018-11-11T09:52:30.754Z,0.70
2018-11-11T09:55:01.524Z,0.90
2018-11-11T09:57:31.540Z,1.00
2018-11-11T10:00:01.601Z,0.83
2018-11-11T10:02:35.699Z,0.80
2018-11-11T10:05:15.750Z,0.77
2018-11-11T10:08:04.853Z,1.13
2018-11-11T10:10:41.509Z,1.53
2018-11-11T10:13:18.764Z,0.70
2018-11-11T10:15:57.905Z,1.20
2018-11-11T10:18:39.881Z,0.90
2018-11-11T10:21:20.113Z,1.00
2018-11-11T10:25:58.298Z,1.07
2018-11-11T10:28:36.310Z,1.00
2018-11-11T10:31:11.249Z,0.63
2018-11-11T10:34:10.603Z,1.10
2018-11-11T10:49:10.306Z,0.90
2018-11-11T10:51:40.534Z,1.00
2018-11-11T10:54:10.623Z,1.00
2018-11-11T11:00:13.197Z,0.70
2018-11-11T11:02:48.233Z,0.73
2018-11-11T11:05:26.146Z,0.97
2018-11-11T11:07:56.630Z,0.90
2018-11-11T11:10:26.829Z,0.80
2018-11-11T11:12:56.986Z,0.90
2018-11-11T11:15:54.680Z,1.00
2018-11-11T11:21:45.399Z,1.00
2018-11-11T11:27:15.740Z,0.90
2018-11-11T11:29:45.841Z,0.90
2018-11-11T11:32:16.241Z,1.03
2018-11-11T11:35:14.260Z,1.20
2018-11-11T11:37:46.044Z,1.17
2018-11-11T11:40:17.932Z,1.20
2018-11-11T11:42:48.092Z,1.00
2018-11-11T11:45:54.634Z,1.10
2018-11-11T11:48:35.517Z,0.87
2018-11-11T11:51:09.038Z,1.13
2018-11-11T11:56:35.441Z,1.00
2018-11-11T11:59:07.799Z,1.10
2018-11-11T12:01:38.095Z,0.90
2018-11-11T12:04:09.245Z,1.40
2018-11-11T12:06:43.506Z,1.20
2018-11-11T12:09:13.699Z,1.43
2018-11-11T12:11:43.747Z,1.10
2018-11-11T12:14:13.724Z,1.33
2018-11-11T12:16:43.799Z,1.13
2018-11-11T12:19:13.794Z,1.50
2018-11-11T12:21:43.977Z,1.20
2018-11-11T12:24:14.028Z,1.50
2018-11-11T12:26:44.175Z,1.20
2018-11-11T12:29:14.305Z,1.00
2018-11-11T12:31:44.631Z,1.30
2018-11-11T12:34:14.602Z,1.50
2018-11-11T12:36:44.637Z,2.53
2018-11-11T12:39:14.836Z,1.10
2018-11-11T12:41:44.601Z,1.47
2018-11-11T12:44:15.560Z,1.50
2018-11-11T12:46:45.616Z,1.63
2018-11-11T12:49:15.973Z,1.00
2018-11-11T12:51:46.085Z,1.50
2018-11-11T12:54:16.112Z,1.50
2018-11-11T12:56:46.118Z,1.50
2018-11-11T12:59:16.160Z,1.23
2018-11-11T13:01:46.176Z,1.10
2018-11-11T13:04:17.239Z,1.00
2018-11-11T13:09:27.966Z,1.70
2018-11-11T13:11:58.028Z,1.60
2018-11-11T13:14:28.146Z,1.33
2018-11-11T13:16:58.173Z,1.27
2018-11-11T13:19:28.243Z,1.17
2018-11-11T13:21:58.311Z,1.30
2018-11-11T13:24:28.220Z,1.40
2018-11-11T13:26:58.119Z,1.43
2018-11-11T13:29:28.041Z,1.23
2018-11-11T13:31:58.301Z,1.70
2018-11-11T13:34:28.135Z,1.57
2018-11-11T13:36:58.328Z,1.53
2018-11-11T13:39:28.177Z,1.90
2018-11-11T13:41:58.233Z,2.60
2018-11-11T13:44:28.234Z,1.27
2018-11-11T13:46:58.193Z,1.40
2018-11-11T13:49:28.193Z,1.80
2018-11-11T13:51:58.275Z,2.10
2018-11-11T13:54:28.993Z,1.67
2018-11-11T13:56:59.011Z,1.77
2018-11-11T13:59:29.104Z,1.60
2018-11-11T14:01:59.070Z,2.00
2018-11-11T14:04:28.807Z,1.80
2018-11-11T14:06:58.756Z,1.87
2018-11-11T14:09:28.698Z,2.10
2018-11-11T14:11:58.672Z,2.10
2018-11-11T14:14:28.669Z,1.93
2018-11-11T14:16:58.661Z,2.13
2018-11-11T14:19:28.640Z,2.40
2018-11-11T14:21:58.534Z,2.90
2018-11-11T14:24:28.583Z,2.70
2018-11-11T14:26:58.661Z,2.50
2018-11-11T14:29:28.603Z,1.90
2018-11-11T14:31:58.478Z,2.67
2018-11-11T14:34:28.503Z,2.00
2018-11-11T14:36:58.581Z,2.10
2018-11-11T14:39:28.975Z,2.30
2018-11-11T14:41:58.792Z,2.13
2018-11-11T14:44:28.607Z,2.30
2018-11-11T14:46:58.471Z,2.17
2018-11-11T14:49:28.175Z,2.00
2018-11-11T14:51:58.156Z,2.20
2018-11-11T14:54:27.859Z,2.40
2018-11-11T14:56:57.704Z,2.40
2018-11-11T14:59:27.635Z,2.37
2018-11-11T15:01:57.571Z,2.30
2018-11-11T15:04:27.364Z,2.47
2018-11-11T15:06:57.255Z,2.03
2018-11-11T15:09:27.254Z,2.90
2018-11-11T15:11:57.243Z,2.13
2018-11-11T15:14:27.241Z,2.10
2018-11-11T15:16:57.180Z,3.17
2018-11-11T15:19:27.331Z,3.33
2018-11-11T15:21:57.396Z,2.60
2018-11-11T15:24:27.298Z,2.50
2018-11-11T15:26:57.159Z,2.93
2018-11-11T15:29:27.474Z,2.40
2018-11-11T15:31:57.316Z,3.30
2018-11-11T15:34:27.108Z,2.60
2018-11-11T15:36:57.069Z,3.10
2018-11-11T15:39:27.090Z,2.90
2018-11-11T15:41:57.050Z,3.03
2018-11-11T15:44:26.979Z,2.80
2018-11-11T15:46:56.838Z,2.50
2018-11-11T15:49:26.822Z,3.00
2018-11-11T15:51:56.889Z,3.33
2018-11-11T15:54:26.754Z,2.93
2018-11-11T15:56:56.745Z,2.63
2018-11-11T15:59:26.544Z,2.40
2018-11-11T16:01:56.368Z,2.50
2018-11-11T16:04:26.227Z,2.67
2018-11-11T16:06:56.273Z,2.60
2018-11-11T16:09:26.308Z,2.07
2018-11-11T16:11:56.283Z,2.50
2018-11-11T16:14:26.344Z,2.70
2018-11-11T16:16:56.236Z,2.30
2018-11-11T16:19:26.134Z,2.00
2018-11-11T16:21:55.999Z,1.97
2018-11-11T16:24:26.060Z,1.87
2018-11-11T16:26:55.854Z,2.33
2018-11-11T16:29:25.883Z,3.20
2018-11-11T16:31:55.667Z,2.17
2018-11-11T16:34:25.637Z,2.60
2018-11-11T16:36:55.522Z,1.90
2018-11-11T16:39:25.548Z,2.50
2018-11-11T16:41:55.536Z,2.53
2018-11-11T16:44:25.486Z,1.97
2018-11-11T16:46:55.488Z,1.97
2018-11-11T16:49:25.440Z,1.97
2018-11-11T16:51:56.345Z,2.27
2018-11-11T16:54:26.208Z,2.47
2018-11-11T16:56:56.168Z,1.90
2018-11-11T16:59:25.940Z,1.93
2018-11-11T17:01:55.931Z,2.10
2018-11-11T17:04:25.916Z,2.10
2018-11-11T17:06:55.632Z,1.60
2018-11-11T17:09:25.420Z,1.60
2018-11-11T17:11:55.454Z,2.13
2018-11-11T17:14:25.463Z,2.53
2018-11-11T17:16:55.380Z,1.67
2018-11-11T17:19:25.371Z,2.37
2018-11-11T17:21:55.536Z,1.80
2018-11-11T17:24:25.256Z,1.70
2018-11-11T17:26:55.324Z,1.77
2018-11-11T17:29:25.593Z,2.40
2018-11-11T17:31:55.759Z,1.77
2018-11-11T17:34:26.097Z,1.83
2018-11-11T17:36:56.252Z,1.87
2018-11-11T17:39:26.390Z,2.50
2018-11-11T17:41:56.761Z,1.80
2018-11-11T17:44:26.603Z,1.80
2018-11-11T17:46:56.526Z,2.10
2018-11-11T17:49:26.647Z,2.27
2018-11-11T17:51:56.565Z,1.90
2018-11-11T17:54:27.836Z,2.47
2018-11-11T17:56:57.896Z,2.33
2018-11-11T17:59:27.751Z,2.20
2018-11-11T18:01:57.892Z,2.33
2018-11-11T18:04:27.952Z,2.27
2018-11-11T18:06:58.404Z,2.57
2018-11-11T18:09:29.725Z,2.10
2018-11-11T18:11:59.814Z,1.60
2018-11-11T18:14:34.013Z,1.90
2018-11-11T18:17:04.179Z,1.70
2018-11-11T18:19:33.918Z,2.07
2018-11-11T18:22:03.916Z,2.00
2018-11-11T18:24:33.976Z,2.40
2018-11-11T18:27:05.088Z,1.83
2018-11-11T18:29:34.688Z,2.33
2018-11-11T18:32:04.495Z,2.30
2018-11-11T18:34:34.661Z,2.53
2018-11-11T18:37:04.571Z,1.83
2018-11-11T18:39:34.500Z,1.90
2018-11-11T18:42:07.444Z,2.13
2018-11-11T18:44:37.919Z,1.90
2018-11-11T18:47:07.899Z,2.17
2018-11-11T18:49:37.854Z,1.70
2018-11-11T18:52:07.356Z,2.00
2018-11-11T18:54:37.564Z,1.97
2018-11-11T18:57:07.818Z,2.30
2018-11-11T18:59:37.799Z,1.67
2018-11-11T19:02:07.832Z,1.90
2018-11-11T19:04:37.927Z,2.17
2018-11-11T19:07:08.503Z,2.13
2018-11-11T19:09:38.364Z,1.70
2018-11-11T19:12:08.556Z,1.40
2018-11-11T19:14:38.519Z,1.60
2018-11-11T19:17:11.849Z,2.13
2018-11-11T19:19:42.068Z,1.77
2018-11-11T19:22:13.090Z,1.10
2018-11-11T19:24:44.286Z,1.53
2018-11-11T19:27:14.160Z,1.50
2018-11-11T19:29:44.343Z,1.17
2018-11-11T19:32:14.290Z,1.70
2018-11-11T19:34:44.209Z,1.40
2018-11-11T19:37:30.316Z,1.67
2018-11-11T19:40:02.353Z,1.47
2018-11-11T19:42:32.325Z,1.23
2018-11-11T19:45:02.232Z,1.37
2018-11-11T19:47:40.533Z,1.50
2018-11-11T19:50:25.522Z,1.13
2018-11-11T19:52:57.421Z,1.10
2018-11-11T19:55:27.423Z,1.60
2018-11-11T19:57:57.275Z,1.00
2018-11-11T20:00:32.669Z,1.27
2018-11-11T20:03:04.072Z,1.30
2018-11-11T20:05:33.959Z,1.23
2018-11-11T20:08:03.980Z,1.20
2018-11-11T20:10:33.923Z,1.40
2018-11-11T20:13:03.997Z,1.13
2018-11-11T20:15:43.068Z,1.33
2018-11-11T20:18:13.381Z,1.10
2018-11-11T20:20:44.287Z,1.10
2018-11-11T20:23:14.543Z,1.37
2018-11-11T20:25:46.588Z,1.10
2018-11-11T20:28:16.700Z,1.20
2018-11-11T20:30:46.603Z,1.47
2018-11-11T20:33:16.599Z,1.30
2018-11-11T20:35:46.581Z,1.60
2018-11-11T20:38:18.559Z,1.20
2018-11-11T20:40:48.589Z,1.07
2018-11-11T20:43:29.093Z,1.50
2018-11-11T20:45:59.488Z,1.73
2018-11-11T20:48:30.722Z,1.37
2018-11-11T20:51:00.825Z,1.67
2018-11-11T20:53:47.697Z,1.30
2018-11-11T20:56:34.385Z,1.93
2018-11-11T21:02:05.933Z,1.47
2018-11-11T21:04:36.438Z,1.67
2018-11-11T21:07:06.749Z,1.37
2018-11-11T21:09:36.823Z,1.50
2018-11-11T21:12:06.974Z,1.43
2018-11-11T21:14:36.996Z,1.40
2018-11-11T21:17:07.286Z,1.70
2018-11-11T21:19:37.248Z,1.60
2018-11-11T21:22:12.033Z,1.70
2018-11-11T21:25:00.201Z,1.40
2018-11-11T21:27:30.148Z,1.47
2018-11-11T21:30:02.209Z,1.47
2018-11-11T21:32:32.295Z,1.13
2018-11-11T21:35:02.367Z,1.43
2018-11-11T21:37:32.406Z,1.27
2018-11-11T21:40:02.343Z,2.10
2018-11-11T21:42:32.274Z,1.10
2018-11-11T21:45:02.264Z,1.20
2018-11-11T21:47:33.217Z,1.27
2018-11-11T21:50:03.154Z,1.37
2018-11-11T21:52:33.142Z,1.13
2018-11-11T21:55:03.180Z,1.67
2018-11-11T21:57:33.285Z,1.47
2018-11-11T22:00:03.337Z,1.37
2018-11-11T22:02:33.344Z,1.23
2018-11-11T22:05:03.634Z,1.50
2018-11-11T22:07:34.692Z,1.50
2018-11-11T22:10:05.315Z,1.03
2018-11-11T22:12:35.206Z,1.30
2018-11-11T22:15:05.524Z,1.37
2018-11-11T22:17:35.586Z,1.53
2018-11-11T22:20:06.246Z,0.73
2018-11-11T22:22:37.577Z,1.00
2018-11-11T22:25:07.859Z,1.50
2018-11-11T22:27:37.934Z,1.40
2018-11-11T22:30:12.694Z,0.80
2018-11-11T22:32:46.477Z,1.60
2018-11-11T22:35:16.529Z,1.37
2018-11-11T22:37:46.513Z,1.37
2018-11-11T22:40:16.532Z,1.60
2018-11-11T22:42:48.012Z,1.27
2018-11-11T22:45:18.058Z,1.27
2018-11-11T22:47:48.067Z,1.17
2018-11-11T22:50:20.244Z,1.40
2018-11-11T22:52:50.268Z,1.10
2018-11-11T22:55:20.223Z,1.03
2018-11-11T22:57:50.224Z,1.20
2018-11-11T23:00:25.231Z,1.03
2018-11-11T23:02:55.293Z,0.83
2018-11-11T23:05:25.728Z,1.10
2018-11-11T23:07:55.563Z,1.33
2018-11-11T23:10:26.906Z,1.00
2018-11-11T23:12:57.053Z,0.70
2018-11-11T23:15:27.117Z,0.60
2018-11-11T23:17:56.980Z,1.17
2018-11-11T23:20:27.121Z,0.70
2018-11-11T23:22:57.313Z,0.77
2018-11-11T23:25:29.247Z,0.73
2018-11-11T23:27:59.196Z,1.20
2018-11-11T23:30:29.410Z,1.00
2018-11-11T23:33:04.172Z,1.03
2018-11-11T23:35:35.217Z,0.80
2018-11-11T23:38:05.529Z,0.90
2018-11-11T23:40:35.408Z,0.90
2018-11-11T23:43:05.393Z,0.73
2018-11-11T23:45:38.905Z,1.03
2018-11-11T23:48:13.821Z,0.80
2018-11-11T23:50:48.102Z,1.00
2018-11-11T23:53:18.253Z,1.10
2018-11-11T23:55:51.029Z,1.17
2018-11-11T23:58:21.020Z,0.93
